createdAt,value
2017-12-25T00:01:36.958Z,98416.27
2017-12-25T00:03:13.389Z,98502.49
2017-12-25T00:04:49.993Z,98380.34
2017-12-25T00:06:26.874Z,98290.62
2017-12-25T00:08:07.810Z,98283.16
2017-12-25T00:09:45.504Z,98356.67
2017-12-25T00:11:21.727Z,98351.42
2017-12-25T00:12:58.012Z,98295.84
2017-12-25T00:14:34.422Z,98281.32
2017-12-25T00:16:10.853Z,98418.47
2017-12-25T00:17:55.126Z,98519.16
2017-12-25T00:19:31.560Z,98544.97
2017-12-25T00:21:08.658Z,98472.70
2017-12-25T00:22:44.971Z,98559.48
2017-12-25T00:24:21.724Z,98571.26
2017-12-25T00:25:58.529Z,98594.05
2017-12-25T00:27:34.876Z,98567.36
2017-12-25T00:29:11.280Z,98519.59
2017-12-25T00:30:47.988Z,98546.70
2017-12-25T00:32:24.462Z,98451.31
2017-12-25T00:34:00.907Z,98562.11
2017-12-25T00:35:37.228Z,98480.55
2017-12-25T00:37:13.883Z,98421.98
2017-12-25T00:38:50.327Z,98439.94
2017-12-25T00:40:27.491Z,98527.04
2017-12-25T00:42:07.375Z,98558.58
2017-12-25T00:43:43.836Z,98446.42
2017-12-25T00:45:20.332Z,98413.58
2017-12-25T00:46:56.792Z,98278.30
2017-12-25T00:48:33.323Z,98232.37
2017-12-25T00:50:28.740Z,98274.78
2017-12-25T00:52:13.159Z,98259.50
2017-12-25T00:53:52.636Z,98325.58
2017-12-25T00:56:57.249Z,98412.28
2017-12-25T00:58:33.696Z,98391.70
2017-12-25T01:00:11.135Z,98439.45
2017-12-25T01:01:49.687Z,98459.56
2017-12-25T01:03:26.203Z,98581.80
2017-12-25T01:05:03.374Z,98581.34
2017-12-25T01:06:40.210Z,98460.48
2017-12-25T01:08:18.195Z,98501.16
2017-12-25T01:09:55.333Z,98532.27
2017-12-25T01:11:31.809Z,98380.77
2017-12-25T01:13:08.742Z,98451.28
2017-12-25T01:14:45.210Z,98485.86
2017-12-25T01:16:21.777Z,98543.21
2017-12-25T01:17:58.931Z,98589.23
2017-12-25T01:19:37.824Z,98555.48
2017-12-25T01:21:15.147Z,98460.33
2017-12-25T01:22:51.529Z,98484.53
2017-12-25T01:24:27.964Z,98467.77
2017-12-25T01:26:04.349Z,98444.59
2017-12-25T01:27:40.750Z,98459.63
2017-12-25T01:29:17.281Z,98475.72
2017-12-25T01:30:53.757Z,98474.42
2017-12-25T01:32:40.257Z,98560.34
2017-12-25T01:34:16.677Z,98613.32
2017-12-25T01:35:53.860Z,98587.86
2017-12-25T01:37:30.388Z,98583.91
2017-12-25T01:39:07.987Z,98530.47
2017-12-25T01:40:45.724Z,98458.16
2017-12-25T01:42:24.424Z,98438.98
2017-12-25T01:44:00.752Z,98430.63
2017-12-25T01:45:37.799Z,98420.06
2017-12-25T01:47:14.817Z,98414.97
2017-12-25T01:48:54.160Z,98470.90
2017-12-25T01:50:30.755Z,98399.52
2017-12-25T01:52:08.343Z,98270.86
2017-12-25T01:53:45.098Z,98313.25
2017-12-25T01:55:25.510Z,98397.33
2017-12-25T01:57:07.589Z,98413.11
2017-12-25T01:58:46.363Z,98451.21
2017-12-25T02:00:24.166Z,98463.05
2017-12-25T02:02:00.554Z,98519.55
2017-12-25T02:03:36.891Z,98551.06
2017-12-25T02:05:18.253Z,98500.70
2017-12-25T02:09:03.184Z,98394.73
2017-12-25T02:10:39.693Z,98274.84
2017-12-25T02:12:15.829Z,98234.13
2017-12-25T02:13:51.939Z,98134.04
2017-12-25T02:15:28.022Z,98112.66
2017-12-25T02:17:05.744Z,98182.59
2017-12-25T02:18:42.284Z,98208.73
2017-12-25T02:20:18.596Z,98249.38
2017-12-25T02:21:55.031Z,98273.05
2017-12-25T02:23:31.869Z,98271.33
2017-12-25T02:25:08.970Z,98293.22
2017-12-25T02:26:45.372Z,98265.64
2017-12-25T02:28:22.595Z,98329.06
2017-12-25T02:29:59.229Z,98370.20
2017-12-25T02:31:35.588Z,98337.77
2017-12-25T02:33:11.831Z,98329.92
2017-12-25T02:34:49.226Z,98290.09
2017-12-25T02:36:25.707Z,98288.83
2017-12-25T02:38:02.875Z,98381.27
2017-12-25T02:39:39.362Z,98527.91
2017-12-25T02:41:16.578Z,98548.00
2017-12-25T02:42:53.325Z,98601.38
2017-12-25T02:44:30.493Z,98588.33
2017-12-25T02:46:06.869Z,98473.09
2017-12-25T02:47:43.273Z,98452.94
2017-12-25T02:49:22.763Z,98448.98
2017-12-25T02:50:59.264Z,98364.52
2017-12-25T02:52:35.700Z,98384.69
2017-12-25T02:54:12.011Z,98393.90
2017-12-25T02:55:48.607Z,98422.32
2017-12-25T02:57:24.948Z,98522.55
2017-12-25T02:59:01.316Z,98548.47
2017-12-25T03:00:37.635Z,98528.64
2017-12-25T03:02:14.523Z,98470.03
2017-12-25T03:03:51.138Z,98398.19
2017-12-25T03:05:27.591Z,98335.11
2017-12-25T03:07:04.041Z,98308.00
2017-12-25T03:08:40.798Z,98289.70
2017-12-25T03:10:17.175Z,98301.45
2017-12-25T03:11:53.567Z,98298.36
2017-12-25T03:13:30.796Z,98351.33
2017-12-25T03:15:14.489Z,98412.69
2017-12-25T03:16:51.691Z,98423.13
2017-12-25T03:18:28.235Z,98362.73
2017-12-25T03:20:05.413Z,98371.96
2017-12-25T03:21:41.785Z,98351.36
2017-12-25T03:23:18.092Z,98290.52
2017-12-25T03:24:54.378Z,98299.69
2017-12-25T03:26:30.767Z,98315.80
2017-12-25T03:28:07.429Z,98354.84
2017-12-25T03:29:43.788Z,98378.94
2017-12-25T03:31:20.179Z,98373.27
2017-12-25T03:32:57.245Z,98396.45
2017-12-25T03:34:34.741Z,98360.17
2017-12-25T03:36:11.977Z,98451.65
2017-12-25T03:37:49.148Z,98483.64
2017-12-25T03:39:25.520Z,98501.06
2017-12-25T03:41:02.464Z,98478.78
2017-12-25T03:42:38.889Z,98528.27
2017-12-25T03:44:16.906Z,98531.73
2017-12-25T03:45:54.117Z,98432.39
2017-12-25T03:47:30.940Z,98517.36
2017-12-25T03:49:07.406Z,98551.09
2017-12-25T03:50:44.492Z,98508.58
2017-12-25T03:52:21.764Z,98377.22
2017-12-25T03:53:58.337Z,98374.19
2017-12-25T03:55:35.421Z,98275.21
2017-12-25T03:57:11.928Z,98315.97
2017-12-25T03:58:48.256Z,98340.86
2017-12-25T04:00:24.934Z,98353.16
2017-12-25T04:02:01.331Z,98385.13
2017-12-25T04:03:37.707Z,98277.80
2017-12-25T04:05:14.152Z,98234.56
2017-12-25T04:06:50.777Z,98208.80
2017-12-25T04:08:27.854Z,98314.18
2017-12-25T04:10:04.293Z,98388.09
2017-12-25T04:11:40.868Z,98373.27
2017-12-25T04:13:18.184Z,98389.48
2017-12-25T04:14:54.628Z,98414.38
2017-12-25T04:16:31.790Z,98405.20
2017-12-25T04:18:08.887Z,98375.48
2017-12-25T04:19:46.379Z,98285.70
2017-12-25T04:21:23.594Z,98325.91
2017-12-25T04:23:00.129Z,98326.38
2017-12-25T04:24:36.505Z,98320.26
2017-12-25T04:26:13.179Z,98415.70
2017-12-25T04:27:49.499Z,98414.88
2017-12-25T04:29:27.245Z,98339.13
2017-12-25T04:31:03.774Z,98386.72
2017-12-25T04:32:40.434Z,98298.83
2017-12-25T04:34:16.851Z,98415.67
2017-12-25T04:35:53.112Z,98450.78
2017-12-25T04:37:29.499Z,98458.56
2017-12-25T04:39:06.427Z,98497.57
2017-12-25T04:40:42.824Z,98535.73
2017-12-25T04:42:19.237Z,98551.90
2017-12-25T04:43:55.617Z,98549.73
2017-12-25T04:45:33.013Z,98583.04
2017-12-25T04:47:09.493Z,98591.36
2017-12-25T04:48:45.859Z,98625.17
2017-12-25T04:50:22.263Z,98594.86
2017-12-25T04:51:58.945Z,98515.97
2017-12-25T04:53:36.148Z,98452.48
2017-12-25T04:55:12.632Z,98366.64
2017-12-25T04:56:49.052Z,98400.41
2017-12-25T04:58:26.591Z,98425.38
2017-12-25T05:00:04.379Z,98446.83
2017-12-25T05:01:41.793Z,98459.96
2017-12-25T05:03:18.096Z,98356.18
2017-12-25T05:04:55.612Z,98398.19
2017-12-25T05:06:31.887Z,98401.68
2017-12-25T05:08:11.420Z,98385.42
2017-12-25T05:09:48.477Z,98406.53
2017-12-25T05:11:25.152Z,98404.73
2017-12-25T05:13:01.545Z,98439.34
2017-12-25T05:14:37.897Z,98421.36
2017-12-25T05:16:14.234Z,98399.95
2017-12-25T05:17:50.565Z,98374.16
2017-12-25T05:19:27.041Z,98437.98
2017-12-25T05:21:03.323Z,98480.95
2017-12-25T05:22:40.417Z,98492.31
2017-12-25T05:24:21.170Z,98488.83
2017-12-25T05:25:58.072Z,98498.44
2017-12-25T05:27:34.456Z,98534.36
2017-12-25T05:29:10.851Z,98537.89
2017-12-25T05:30:47.532Z,98517.73
2017-12-25T05:32:23.953Z,98487.47
2017-12-25T05:34:00.305Z,98463.48
2017-12-25T05:35:36.699Z,98424.42
2017-12-25T05:37:13.460Z,98414.45
2017-12-25T05:38:49.862Z,98381.60
2017-12-25T05:40:26.269Z,98338.23
2017-12-25T05:42:02.815Z,98307.97
2017-12-25T05:43:39.330Z,98274.21
2017-12-25T05:45:18.345Z,98248.91
2017-12-25T05:46:55.267Z,98292.25
2017-12-25T05:48:31.764Z,98293.48
2017-12-25T05:50:08.561Z,98322.42
2017-12-25T05:51:45.615Z,98321.09
2017-12-25T05:53:22.410Z,98291.39
2017-12-25T05:54:59.456Z,98325.44
2017-12-25T05:56:36.171Z,98431.44
2017-12-25T05:58:12.439Z,98514.17
2017-12-25T05:59:48.796Z,98487.00
2017-12-25T06:01:25.104Z,98484.04
2017-12-25T06:03:01.567Z,98408.99
2017-12-25T06:04:37.968Z,98349.50
2017-12-25T06:06:15.105Z,98330.69
2017-12-25T06:07:51.463Z,98371.47
2017-12-25T06:09:28.216Z,98374.12
2017-12-25T06:11:04.671Z,98441.54
2017-12-25T06:12:41.074Z,98450.69
2017-12-25T06:14:17.426Z,98463.32
2017-12-25T06:15:54.237Z,98434.89
2017-12-25T06:17:30.667Z,98388.41
2017-12-25T06:19:07.098Z,98399.48
2017-12-25T06:20:44.356Z,98424.84
2017-12-25T06:22:21.276Z,98430.10
2017-12-25T06:23:57.636Z,98416.08
2017-12-25T06:25:34.669Z,98452.91
2017-12-25T06:27:11.039Z,98505.86
2017-12-25T06:28:47.928Z,98510.64
2017-12-25T06:30:24.403Z,98508.02
2017-12-25T06:32:00.893Z,98474.66
2017-12-25T06:33:37.385Z,98435.33
2017-12-25T06:35:14.317Z,98424.39
2017-12-25T06:36:50.786Z,98340.73
2017-12-25T06:38:27.291Z,98398.16
2017-12-25T06:40:03.865Z,98460.76
2017-12-25T06:41:40.542Z,98425.28
2017-12-25T06:43:16.938Z,98432.70
2017-12-25T06:44:53.430Z,98412.15
2017-12-25T06:46:31.685Z,98347.34
2017-12-25T06:48:10.052Z,98424.39
2017-12-25T06:49:46.540Z,98487.47
2017-12-25T06:51:22.860Z,98402.58
2017-12-25T06:53:01.553Z,98446.70
2017-12-25T06:54:38.958Z,98479.98
2017-12-25T06:56:16.165Z,98462.45
2017-12-25T06:57:52.765Z,98433.56
2017-12-25T06:59:29.234Z,98439.25
2017-12-25T07:01:06.116Z,98442.34
2017-12-25T07:02:43.302Z,98428.77
2017-12-25T07:04:20.506Z,98419.13
2017-12-25T07:05:56.954Z,98447.56
2017-12-25T07:07:34.566Z,98445.83
2017-12-25T07:09:10.997Z,98451.55
2017-12-25T07:10:47.503Z,98385.36
2017-12-25T07:12:24.024Z,98432.70
2017-12-25T07:14:01.315Z,98501.44
2017-12-25T07:15:37.676Z,98487.00
2017-12-25T07:17:14.216Z,98510.19
2017-12-25T07:18:50.576Z,98545.18
2017-12-25T07:20:27.383Z,98553.56
2017-12-25T07:22:03.823Z,98548.80
2017-12-25T07:23:40.249Z,98575.92
2017-12-25T07:25:16.711Z,98401.21
2017-12-25T07:26:54.352Z,98478.28
2017-12-25T07:28:30.851Z,98458.53
2017-12-25T07:30:08.143Z,98469.44
2017-12-25T07:31:46.083Z,98448.42
2017-12-25T07:33:23.868Z,98460.27
2017-12-25T07:35:00.970Z,98370.50
2017-12-25T07:36:37.548Z,98363.95
2017-12-25T07:38:14.167Z,98427.94
2017-12-25T07:39:51.153Z,98474.30
2017-12-25T07:41:31.974Z,98483.01
2017-12-25T07:43:14.877Z,98495.75
2017-12-25T07:44:51.401Z,98467.64
2017-12-25T07:46:27.801Z,98458.94
2017-12-25T07:48:04.358Z,98469.87
2017-12-25T07:49:40.787Z,98507.59
2017-12-25T07:51:17.449Z,98501.41
2017-12-25T07:52:54.708Z,98534.30
2017-12-25T07:54:31.019Z,98542.62
2017-12-25T07:56:10.847Z,98567.17
2017-12-25T07:57:48.571Z,98570.20
2017-12-25T07:59:26.160Z,98555.23
2017-12-25T08:01:03.483Z,98532.10
2017-12-25T08:02:39.915Z,98496.55
2017-12-25T08:04:16.449Z,98463.72
2017-12-25T08:05:52.976Z,98460.23
2017-12-25T08:07:30.150Z,98439.61
2017-12-25T08:10:39.949Z,98422.63
2017-12-25T08:12:16.401Z,98402.91
2017-12-25T08:13:52.760Z,98333.25
2017-12-25T08:15:29.853Z,98341.19
2017-12-25T08:17:06.594Z,98351.59
2017-12-25T08:18:42.975Z,98326.27
2017-12-25T08:20:19.259Z,98377.95
2017-12-25T08:21:56.560Z,98372.23
2017-12-25T08:23:33.296Z,98429.57
2017-12-25T08:25:09.757Z,98425.62
2017-12-25T08:26:46.652Z,98391.08
2017-12-25T08:28:23.232Z,98387.13
2017-12-25T08:30:00.028Z,98397.62
2017-12-25T08:31:36.627Z,98396.33
2017-12-25T08:33:12.991Z,98336.27
2017-12-25T08:34:49.526Z,98251.00
2017-12-25T08:36:28.212Z,98250.17
2017-12-25T08:38:04.668Z,98272.81
2017-12-25T08:39:41.094Z,98353.32
2017-12-25T08:41:17.512Z,98350.33
2017-12-25T08:42:54.594Z,98334.11
2017-12-25T08:44:31.011Z,98309.13
2017-12-25T08:46:07.444Z,98318.30
2017-12-25T08:47:44.702Z,98263.19
2017-12-25T08:49:22.510Z,98260.12
2017-12-25T08:50:59.697Z,98300.89
2017-12-25T08:52:36.932Z,98301.72
2017-12-25T08:54:14.085Z,98313.48
2017-12-25T08:55:51.009Z,98324.91
2017-12-25T08:57:27.409Z,98302.91
2017-12-25T08:59:03.869Z,98248.27
2017-12-25T09:00:41.102Z,98237.78
2017-12-25T09:02:17.942Z,98180.36
2017-12-25T09:03:54.962Z,98183.52
2017-12-25T09:05:31.341Z,98210.69
2017-12-25T09:07:08.584Z,98226.89
2017-12-25T09:08:45.384Z,98165.20
2017-12-25T09:10:21.933Z,98256.58
2017-12-25T09:11:58.343Z,98333.19
2017-12-25T09:13:34.755Z,98393.20
2017-12-25T09:15:12.846Z,98455.34
2017-12-25T09:16:49.318Z,98356.81
2017-12-25T09:18:25.688Z,98409.39
2017-12-25T09:20:02.265Z,98352.42
2017-12-25T09:21:39.147Z,98413.34
2017-12-25T09:23:17.519Z,98421.59
2017-12-25T09:24:53.854Z,98403.24
2017-12-25T09:26:30.920Z,98421.63
2017-12-25T09:28:07.803Z,98407.17
2017-12-25T09:29:45.217Z,98387.45
2017-12-25T09:31:21.608Z,98442.61
2017-12-25T09:32:57.973Z,98447.86
2017-12-25T09:34:34.743Z,98485.57
2017-12-25T09:36:11.101Z,98450.45
2017-12-25T09:37:47.559Z,98418.07
2017-12-25T09:39:23.886Z,98382.63
2017-12-25T09:41:00.589Z,98385.26
2017-12-25T09:42:37.015Z,98407.17
2017-12-25T09:44:13.550Z,98423.36
2017-12-25T09:45:49.999Z,98381.34
2017-12-25T09:47:27.611Z,98377.78
2017-12-25T09:49:04.065Z,98370.73
2017-12-25T09:50:40.575Z,98403.61
2017-12-25T09:52:16.930Z,98439.12
2017-12-25T09:53:54.608Z,98433.46
2017-12-25T09:55:31.808Z,98328.30
2017-12-25T09:57:08.349Z,98274.98
2017-12-25T09:58:45.806Z,98273.15
2017-12-25T10:00:22.209Z,98293.75
2017-12-25T10:01:58.697Z,98297.27
2017-12-25T10:03:35.736Z,98355.91
2017-12-25T10:05:13.004Z,98317.77
2017-12-25T10:06:51.627Z,98201.38
2017-12-25T10:08:28.769Z,98159.02
2017-12-25T10:10:05.225Z,98185.68
2017-12-25T10:11:41.722Z,98131.11
2017-12-25T10:13:19.336Z,98159.88
2017-12-25T10:14:55.987Z,98227.61
2017-12-25T10:16:32.378Z,98265.67
2017-12-25T10:18:08.781Z,98243.45
2017-12-25T10:19:46.868Z,98250.83
2017-12-25T10:21:25.516Z,98260.86
2017-12-25T10:23:02.652Z,98295.11
2017-12-25T10:24:39.097Z,98270.92
2017-12-25T10:26:16.891Z,98323.58
2017-12-25T10:27:53.661Z,98415.05
2017-12-25T10:29:30.872Z,98510.52
2017-12-25T10:31:07.422Z,98535.44
2017-12-25T10:32:44.164Z,98502.14
2017-12-25T10:34:20.526Z,98461.83
2017-12-25T10:35:56.884Z,98419.80
2017-12-25T10:37:33.212Z,98369.80
2017-12-25T10:39:10.256Z,98380.47
2017-12-25T10:40:47.248Z,98342.78
2017-12-25T10:42:23.701Z,98344.12
2017-12-25T10:44:00.254Z,98366.45
2017-12-25T10:45:37.359Z,98390.98
2017-12-25T10:47:14.649Z,98391.77
2017-12-25T10:48:51.209Z,98381.67
2017-12-25T10:50:27.586Z,98349.77
2017-12-25T10:52:04.445Z,98250.03
2017-12-25T10:53:41.683Z,98281.92
2017-12-25T10:55:18.884Z,98172.17
2017-12-25T10:56:57.124Z,98245.19
2017-12-25T10:58:34.881Z,98262.63
2017-12-25T11:00:15.055Z,98317.77
2017-12-25T11:01:52.629Z,98355.81
2017-12-25T11:03:29.309Z,98352.33
2017-12-25T11:05:06.466Z,98345.78
2017-12-25T11:06:43.047Z,98411.86
2017-12-25T11:08:19.806Z,98489.86
2017-12-25T11:09:57.349Z,98445.17
2017-12-25T11:11:35.325Z,98372.93
2017-12-25T11:13:11.865Z,98254.72
2017-12-25T11:14:48.416Z,98100.84
2017-12-25T11:16:24.980Z,97961.56
2017-12-25T11:18:03.936Z,97985.11
2017-12-25T11:19:40.354Z,97970.68
2017-12-25T11:21:17.537Z,98148.50
2017-12-25T11:22:54.843Z,98226.28
2017-12-25T11:24:31.877Z,98172.53
2017-12-25T11:26:11.306Z,98157.23
2017-12-25T11:27:48.554Z,98146.34
2017-12-25T11:29:26.473Z,98258.73
2017-12-25T11:31:02.930Z,98407.53
2017-12-25T11:32:39.509Z,98406.53
2017-12-25T11:34:16.869Z,98450.82
2017-12-25T11:35:53.745Z,98472.30
2017-12-25T11:37:30.571Z,98471.88
2017-12-25T11:39:11.249Z,98549.88
2017-12-25T11:40:48.029Z,98641.47
2017-12-25T11:42:24.531Z,98620.86
2017-12-25T11:44:01.671Z,98563.48
2017-12-25T11:45:38.273Z,98605.05
2017-12-25T11:47:14.749Z,98607.28
2017-12-25T11:48:51.224Z,98627.45
2017-12-25T11:50:28.006Z,98742.83
2017-12-25T11:52:05.151Z,98802.89
2017-12-25T11:53:41.954Z,98844.55
2017-12-25T11:55:18.753Z,98773.02
2017-12-25T11:56:57.602Z,98901.72
2017-12-25T11:58:34.529Z,98997.52
2017-12-25T12:00:12.103Z,99043.61
2017-12-25T12:01:49.770Z,99029.99
2017-12-25T12:03:26.847Z,99091.96
2017-12-25T12:05:03.440Z,99066.44
2017-12-25T12:06:40.027Z,99097.64
2017-12-25T12:08:16.658Z,99059.39
2017-12-25T12:09:53.642Z,99067.36
2017-12-25T12:11:31.077Z,99040.91
2017-12-25T12:13:08.020Z,98911.78
2017-12-25T12:14:45.233Z,98834.52
2017-12-25T12:16:21.778Z,98598.00
2017-12-25T12:17:58.527Z,98474.93
2017-12-25T12:19:35.428Z,98434.27
2017-12-25T12:21:12.015Z,98622.66
2017-12-25T12:22:48.909Z,98555.09
2017-12-25T12:24:30.135Z,98591.80
2017-12-25T12:26:06.993Z,98528.28
2017-12-25T12:27:44.259Z,98569.51
2017-12-25T12:29:21.182Z,98573.90
2017-12-25T12:30:57.788Z,98579.06
2017-12-25T12:32:47.315Z,98617.20
2017-12-25T12:34:24.020Z,98594.44
2017-12-25T12:36:01.626Z,98568.55
2017-12-25T12:37:38.228Z,98604.09
2017-12-25T12:39:16.457Z,98438.98
2017-12-25T12:40:53.185Z,98446.90
2017-12-25T12:42:30.663Z,98528.72
2017-12-25T12:44:07.767Z,98563.35
2017-12-25T12:45:45.732Z,98581.75
2017-12-25T12:47:22.266Z,98605.82
2017-12-25T12:48:59.491Z,98425.42
2017-12-25T12:50:37.162Z,98448.53
2017-12-25T12:52:15.553Z,98473.50
2017-12-25T12:53:53.430Z,98437.63
2017-12-25T12:55:32.088Z,98406.10
2017-12-25T12:57:08.989Z,98445.94
2017-12-25T12:58:47.546Z,98574.23
2017-12-25T13:00:24.414Z,98639.14
2017-12-25T13:02:03.297Z,98621.16
2017-12-25T13:03:40.035Z,98639.20
2017-12-25T13:05:17.495Z,98617.60
2017-12-25T13:06:55.898Z,98493.16
2017-12-25T13:08:34.094Z,98361.86
2017-12-25T13:10:13.335Z,98401.31
2017-12-25T13:11:51.231Z,98413.15
2017-12-25T13:13:28.013Z,98490.16
2017-12-25T13:15:08.881Z,98558.09
2017-12-25T13:16:46.735Z,98638.23
2017-12-25T13:18:23.694Z,98709.27
2017-12-25T13:20:02.100Z,98741.30
2017-12-25T13:21:40.459Z,98730.25
2017-12-25T13:23:17.866Z,98672.44
2017-12-25T13:24:55.344Z,98524.70
2017-12-25T13:26:36.390Z,98551.84
2017-12-25T13:28:17.137Z,98520.77
2017-12-25T13:29:56.299Z,98526.89
2017-12-25T13:31:34.073Z,98575.97
2017-12-25T13:33:13.450Z,98463.83
2017-12-25T13:34:51.508Z,98390.25
2017-12-25T13:36:29.506Z,98406.47
2017-12-25T13:38:09.137Z,98484.87
2017-12-25T13:39:46.325Z,98512.02
2017-12-25T13:41:24.268Z,98561.56
2017-12-25T13:43:03.269Z,98538.23
2017-12-25T13:44:41.164Z,98450.19
2017-12-25T13:46:18.153Z,98421.27
2017-12-25T13:47:56.784Z,98356.02
2017-12-25T13:49:33.729Z,98388.48
2017-12-25T13:51:10.984Z,98377.98
2017-12-25T13:52:48.290Z,98350.40
2017-12-25T13:54:25.224Z,98405.14
2017-12-25T13:56:02.097Z,98473.41
2017-12-25T13:57:38.738Z,98468.58
2017-12-25T13:59:15.866Z,98406.87
2017-12-25T14:00:53.834Z,98432.27
2017-12-25T14:02:30.650Z,98507.63
2017-12-25T14:04:07.550Z,98446.64
2017-12-25T14:05:44.366Z,98474.20
2017-12-25T14:07:21.171Z,98464.20
2017-12-25T14:08:58.288Z,98404.14
2017-12-25T14:10:36.743Z,98326.67
2017-12-25T14:12:14.517Z,98305.20
2017-12-25T14:13:53.088Z,98280.29
2017-12-25T14:15:33.013Z,98271.52
2017-12-25T14:17:10.799Z,98243.13
2017-12-25T14:18:50.104Z,98125.52
2017-12-25T14:20:28.199Z,98230.00
2017-12-25T14:22:05.515Z,98237.41
2017-12-25T14:23:43.729Z,98272.41
2017-12-25T14:25:20.998Z,98255.34
2017-12-25T14:27:00.416Z,98205.89
2017-12-25T14:28:37.286Z,98161.34
2017-12-25T14:30:15.140Z,98094.53
2017-12-25T14:31:53.609Z,98122.00
2017-12-25T14:33:33.460Z,97945.54
2017-12-25T14:35:11.110Z,97977.41
2017-12-25T14:36:50.262Z,98026.71
2017-12-25T14:38:27.749Z,98031.09
2017-12-25T14:40:08.390Z,97979.13
2017-12-25T14:41:48.559Z,97828.98
2017-12-25T14:43:25.672Z,97822.48
2017-12-25T14:45:06.114Z,97856.44
2017-12-25T14:46:44.856Z,97852.10
2017-12-25T14:48:21.927Z,97830.73
2017-12-25T14:49:59.751Z,97789.25
2017-12-25T14:51:41.876Z,97769.61
2017-12-25T14:53:21.181Z,97727.25
2017-12-25T14:54:59.294Z,97718.66
2017-12-25T14:56:38.853Z,97758.64
2017-12-25T14:58:15.598Z,97756.97
2017-12-25T14:59:52.928Z,97767.86
2017-12-25T15:01:29.683Z,97819.30
2017-12-25T15:03:07.139Z,97858.63
2017-12-25T15:04:44.891Z,97907.44
2017-12-25T15:06:23.343Z,97917.95
2017-12-25T15:08:02.558Z,97993.41
2017-12-25T15:09:40.312Z,98051.89
2017-12-25T15:11:18.259Z,98018.64
2017-12-25T15:12:56.866Z,97992.91
2017-12-25T15:14:36.238Z,97946.22
2017-12-25T15:16:20.261Z,97852.82
2017-12-25T15:17:57.891Z,97807.94
2017-12-25T15:19:35.255Z,97783.95
2017-12-25T15:21:16.790Z,97776.89
2017-12-25T15:22:56.747Z,97718.08
2017-12-25T15:24:36.779Z,97685.84
2017-12-25T15:26:16.529Z,97717.22
2017-12-25T15:27:55.693Z,97688.38
2017-12-25T15:29:34.855Z,97702.78
2017-12-25T15:31:13.408Z,97659.59
2017-12-25T15:32:54.049Z,97584.17
2017-12-25T15:34:32.587Z,97582.88
2017-12-25T15:36:13.733Z,97595.05
2017-12-25T15:37:51.716Z,97546.34
2017-12-25T15:39:30.923Z,97576.33
2017-12-25T15:41:12.476Z,97650.88
2017-12-25T15:42:52.869Z,97668.39
2017-12-25T15:44:33.627Z,97689.70
2017-12-25T15:46:12.351Z,97706.69
2017-12-25T15:47:52.957Z,97624.59
2017-12-25T15:49:29.852Z,97631.69
2017-12-25T15:51:08.854Z,97645.97
2017-12-25T15:52:49.798Z,97725.43
2017-12-25T15:54:27.772Z,97724.50
2017-12-25T15:56:06.242Z,97597.20
2017-12-25T15:57:44.746Z,97552.78
2017-12-25T15:59:25.508Z,97554.10
2017-12-25T16:01:04.169Z,97572.47
2017-12-25T16:02:41.155Z,97607.27
2017-12-25T16:04:20.489Z,97513.23
2017-12-25T16:05:58.206Z,97606.80
2017-12-25T16:07:37.398Z,97687.41
2017-12-25T16:09:20.139Z,97603.33
2017-12-25T16:10:58.386Z,97662.66
2017-12-25T16:12:38.971Z,97673.09
2017-12-25T16:14:28.700Z,97741.91
2017-12-25T16:16:09.134Z,97830.98
2017-12-25T16:17:48.145Z,97873.69
2017-12-25T16:19:30.262Z,97843.14
2017-12-25T16:21:10.376Z,97842.31
2017-12-25T16:22:51.899Z,97830.48
2017-12-25T16:24:35.486Z,97849.27
2017-12-25T16:26:17.340Z,97657.28
2017-12-25T16:27:55.383Z,97574.11
2017-12-25T16:29:34.381Z,97615.53
2017-12-25T16:31:17.204Z,97571.42
2017-12-25T16:32:57.546Z,97386.41
2017-12-25T16:34:39.745Z,97307.77
2017-12-25T16:36:20.826Z,97322.95
2017-12-25T16:37:59.911Z,97507.86
2017-12-25T16:39:41.089Z,97437.73
2017-12-25T16:41:21.938Z,97464.78
2017-12-25T16:43:02.534Z,97468.17
2017-12-25T16:44:39.886Z,97452.19
2017-12-25T16:46:18.356Z,97581.45
2017-12-25T16:47:57.003Z,97645.47
2017-12-25T16:49:42.374Z,97539.20
2017-12-25T16:51:26.724Z,97495.22
2017-12-25T16:53:07.113Z,97624.48
2017-12-25T16:54:47.860Z,97623.16
2017-12-25T16:56:28.753Z,97674.70
2017-12-25T16:58:10.442Z,97695.19
2017-12-25T16:59:50.142Z,97685.98
2017-12-25T17:01:33.124Z,97636.27
2017-12-25T17:03:12.588Z,97660.77
2017-12-25T17:04:52.857Z,97648.13
2017-12-25T17:06:33.564Z,97721.81
2017-12-25T17:08:14.578Z,97702.64
2017-12-25T17:09:54.759Z,97732.70
2017-12-25T17:11:33.700Z,97756.64
2017-12-25T17:13:14.528Z,97774.92
2017-12-25T17:14:56.201Z,97686.02
2017-12-25T17:16:37.945Z,97750.44
2017-12-25T17:18:18.973Z,97789.36
2017-12-25T17:19:58.275Z,97775.81
2017-12-25T17:21:38.148Z,97639.70
2017-12-25T17:23:19.466Z,97608.91
2017-12-25T17:24:57.669Z,97634.88
2017-12-25T17:26:38.701Z,97650.73
2017-12-25T17:28:20.350Z,97559.18
2017-12-25T17:30:03.072Z,97607.02
2017-12-25T17:31:45.562Z,97601.35
2017-12-25T17:33:26.247Z,97594.84
2017-12-25T17:35:10.868Z,97573.11
2017-12-25T17:36:50.222Z,97569.13
2017-12-25T17:38:28.621Z,97532.48
2017-12-25T17:40:12.035Z,97538.20
2017-12-25T17:41:49.842Z,97550.41
2017-12-25T17:43:26.613Z,97554.77
2017-12-25T17:45:06.136Z,97545.66
2017-12-25T17:46:44.643Z,97610.48
2017-12-25T17:48:24.854Z,97610.05
2017-12-25T17:50:04.381Z,97576.97
2017-12-25T17:51:45.382Z,97474.07
2017-12-25T17:53:27.145Z,97456.33
2017-12-25T17:55:09.062Z,97444.56
2017-12-25T17:56:50.625Z,97455.05
2017-12-25T17:58:31.157Z,97397.52
2017-12-25T18:00:11.937Z,97344.50
2017-12-25T18:01:55.446Z,97348.40
2017-12-25T18:03:39.798Z,97361.48
2017-12-25T18:05:23.197Z,97358.37
2017-12-25T18:07:05.065Z,97364.41
2017-12-25T18:08:46.406Z,97394.45
2017-12-25T18:10:27.380Z,97377.03
2017-12-25T18:12:08.656Z,97298.75
2017-12-25T18:13:49.456Z,97251.43
2017-12-25T18:15:31.256Z,97231.43
2017-12-25T18:18:41.822Z,97128.89
2017-12-25T18:20:22.800Z,97144.45
2017-12-25T18:22:05.770Z,97165.77
2017-12-25T18:23:45.439Z,97157.09
2017-12-25T18:25:25.785Z,97121.89
2017-12-25T18:27:06.756Z,97150.09
2017-12-25T18:28:49.044Z,97136.75
2017-12-25T18:30:33.312Z,97096.25
2017-12-25T18:32:16.300Z,97084.13
2017-12-25T18:33:56.671Z,97113.61
2017-12-25T18:35:39.404Z,97122.70
2017-12-25T18:37:20.332Z,97111.42
2017-12-25T18:39:01.327Z,97135.73
2017-12-25T18:40:41.628Z,97141.84
2017-12-25T18:42:24.782Z,97102.24
2017-12-25T18:44:04.935Z,97063.20
2017-12-25T18:45:45.527Z,97021.56
2017-12-25T18:47:27.030Z,97053.20
2017-12-25T18:49:08.336Z,97081.44
2017-12-25T18:50:51.519Z,97077.98
2017-12-25T18:53:02.381Z,97015.02
2017-12-25T18:54:45.577Z,97031.55
2017-12-25T18:56:27.197Z,97031.05
2017-12-25T18:58:08.971Z,97028.48
2017-12-25T18:59:51.463Z,97017.55
2017-12-25T19:01:33.027Z,97038.04
2017-12-25T19:03:19.120Z,97023.23
2017-12-25T19:05:00.226Z,97060.56
2017-12-25T19:06:42.475Z,97081.05
2017-12-25T19:08:24.085Z,97075.80
2017-12-25T19:10:05.642Z,97076.66
2017-12-25T19:11:45.003Z,97049.23
2017-12-25T19:13:25.850Z,97037.50
2017-12-25T19:15:07.032Z,97012.77
2017-12-25T19:16:49.628Z,97060.20
2017-12-25T19:18:30.439Z,97078.02